BVX177 ENGM-ENZV
Flight info
| Callsign | BVX177 |
|---|---|
| Flight time | 0h 33m |
| Altitude | 32000 |
| Route | ATLAP DCT IPMOD DCT ROPNO |
| Aircraft | A319/M-SDE3FGHIRWY/LB1 |
Departure
| Time | 2026-04-16 10:54 |
|---|---|
| Airport | Oslo-Gardermoen International Airport (ENGM) |
Arrival
| Time | 2026-04-16 11:27 |
|---|---|
| Airport | Stavanger Airport, Sola (ENZV) |
| Time | Latitude | Longitude | Altitude | Speed | Heading |
|---|---|---|---|---|---|
| 2026-04-16 10:32 | 60.19528 | 11.09653 | 685 ft | 0 kts | 196° |
| 2026-04-16 10:48 | 60.19543 | 11.09661 | 677 ft | 4 kts | 196° |
| 2026-04-16 10:48 | 60.19569 | 11.09676 | 680 ft | 4 kts | 196° |
| 2026-04-16 10:48 | 60.19576 | 11.09680 | 682 ft | 0 kts | 196° |
| 2026-04-16 10:50 | 60.19575 | 11.09679 | 682 ft | 0 kts | 201° |
| 2026-04-16 10:50 | 60.19577 | 11.09667 | 682 ft | 1 kts | 278° |
| 2026-04-16 10:50 | 60.19611 | 11.09689 | 684 ft | 12 kts | 27° |
| 2026-04-16 10:51 | 60.19715 | 11.09770 | 682 ft | 18 kts | 16° |
| 2026-04-16 10:51 | 60.19846 | 11.09847 | 684 ft | 21 kts | 16° |
| 2026-04-16 10:51 | 60.19988 | 11.09929 | 685 ft | 17 kts | 16° |
| 2026-04-16 10:51 | 60.20072 | 11.09831 | 683 ft | 17 kts | 287° |
| 2026-04-16 10:52 | 60.20110 | 11.09572 | 683 ft | 21 kts | 287° |
| 2026-04-16 10:52 | 60.20153 | 11.09264 | 681 ft | 25 kts | 286° |
| 2026-04-16 10:52 | 60.20203 | 11.08934 | 679 ft | 20 kts | 289° |
| 2026-04-16 10:52 | 60.20245 | 11.08646 | 676 ft | 24 kts | 286° |
| 2026-04-16 10:53 | 60.20275 | 11.08418 | 677 ft | 10 kts | 271° |
| 2026-04-16 10:53 | 60.20209 | 11.08360 | 677 ft | 16 kts | 195° |
| 2026-04-16 10:53 | 60.19853 | 11.08155 | 675 ft | 92 kts | 196° |
| 2026-04-16 10:53 | 60.19012 | 11.07669 | 765 ft | 147 kts | 196° |
| 2026-04-16 10:54 | 60.18024 | 11.07072 | 1448 ft | 150 kts | 196° |
| 2026-04-16 10:54 | 60.17026 | 11.06327 | 2161 ft | 159 kts | 207° |
| 2026-04-16 10:54 | 60.16217 | 11.04759 | 2920 ft | 167 kts | 235° |
| 2026-04-16 10:54 | 60.15739 | 11.02605 | 3694 ft | 170 kts | 248° |
| 2026-04-16 10:55 | 60.15293 | 11.00392 | 4403 ft | 175 kts | 243° |
| 2026-04-16 10:55 | 60.14921 | 10.97920 | 4804 ft | 200 kts | 265° |
| 2026-04-16 10:55 | 60.14927 | 10.94986 | 5230 ft | 222 kts | 269° |
| 2026-04-16 10:55 | 60.14942 | 10.91707 | 5623 ft | 249 kts | 269° |
| 2026-04-16 10:56 | 60.14947 | 10.88080 | 6260 ft | 271 kts | 268° |
| 2026-04-16 10:56 | 60.14953 | 10.84208 | 7098 ft | 282 kts | 268° |
| 2026-04-16 10:56 | 60.14961 | 10.80235 | 8087 ft | 287 kts | 268° |
| 2026-04-16 10:56 | 60.14965 | 10.76190 | 9106 ft | 292 kts | 268° |
| 2026-04-16 10:57 | 60.14966 | 10.72091 | 10114 ft | 296 kts | 268° |
| 2026-04-16 10:57 | 60.14965 | 10.67852 | 10681 ft | 315 kts | 268° |
| 2026-04-16 10:57 | 60.14961 | 10.63290 | 11005 ft | 339 kts | 268° |
| 2026-04-16 10:57 | 60.14954 | 10.58409 | 11363 ft | 358 kts | 268° |
| 2026-04-16 10:58 | 60.14946 | 10.53361 | 12050 ft | 364 kts | 268° |
| 2026-04-16 10:58 | 60.14938 | 10.48246 | 12832 ft | 368 kts | 269° |
| 2026-04-16 10:58 | 60.14929 | 10.43097 | 13656 ft | 371 kts | 269° |
| 2026-04-16 10:58 | 60.14916 | 10.37909 | 14424 ft | 372 kts | 270° |
| 2026-04-16 10:59 | 60.14899 | 10.32689 | 15112 ft | 376 kts | 270° |
| 2026-04-16 10:59 | 60.14879 | 10.27428 | 15788 ft | 379 kts | 270° |
| 2026-04-16 10:59 | 60.14860 | 10.22107 | 16468 ft | 383 kts | 271° |
| 2026-04-16 10:59 | 60.14838 | 10.16738 | 17152 ft | 387 kts | 271° |
| 2026-04-16 11:00 | 60.14814 | 10.11315 | 17826 ft | 391 kts | 271° |
| 2026-04-16 11:00 | 60.14786 | 10.05828 | 18501 ft | 395 kts | 271° |
| 2026-04-16 11:00 | 60.14753 | 10.00295 | 19086 ft | 399 kts | 271° |
| 2026-04-16 11:00 | 60.14715 | 9.94707 | 19689 ft | 402 kts | 271° |
| 2026-04-16 11:01 | 60.14675 | 9.89083 | 20282 ft | 404 kts | 271° |
| 2026-04-16 11:01 | 60.14484 | 9.83432 | 20862 ft | 409 kts | 263° |
| 2026-04-16 11:01 | 60.13804 | 9.77859 | 21415 ft | 414 kts | 252° |
| 2026-04-16 11:01 | 60.12636 | 9.72546 | 21960 ft | 418 kts | 244° |
| 2026-04-16 11:02 | 60.11273 | 9.67383 | 22483 ft | 421 kts | 244° |
| 2026-04-16 11:02 | 60.09903 | 9.62178 | 23009 ft | 423 kts | 244° |
| 2026-04-16 11:02 | 60.08526 | 9.56943 | 23507 ft | 426 kts | 244° |
| 2026-04-16 11:02 | 60.07136 | 9.51671 | 23958 ft | 429 kts | 244° |
| 2026-04-16 11:03 | 60.05736 | 9.46370 | 24365 ft | 432 kts | 244° |
| 2026-04-16 11:03 | 60.04322 | 9.41037 | 24784 ft | 435 kts | 244° |
| 2026-04-16 11:03 | 60.01466 | 9.30305 | 25600 ft | 440 kts | 244° |
| 2026-04-16 11:04 | 60.00017 | 9.24889 | 26010 ft | 443 kts | 244° |
| 2026-04-16 11:04 | 59.98559 | 9.19457 | 26418 ft | 445 kts | 244° |
| 2026-04-16 11:04 | 59.97089 | 9.13995 | 26808 ft | 448 kts | 244° |
| 2026-04-16 11:04 | 59.95608 | 9.08508 | 27186 ft | 450 kts | 244° |
| 2026-04-16 11:05 | 59.94117 | 9.02991 | 27573 ft | 453 kts | 245° |
| 2026-04-16 11:05 | 59.92618 | 8.97451 | 27921 ft | 455 kts | 245° |
| 2026-04-16 11:05 | 59.91106 | 8.91886 | 28279 ft | 458 kts | 245° |
| 2026-04-16 11:05 | 59.89582 | 8.86296 | 28643 ft | 460 kts | 245° |
| 2026-04-16 11:06 | 59.88046 | 8.80680 | 28993 ft | 463 kts | 245° |
| 2026-04-16 11:06 | 59.86503 | 8.75048 | 29320 ft | 465 kts | 245° |
| 2026-04-16 11:06 | 59.84953 | 8.69382 | 29689 ft | 467 kts | 245° |
| 2026-04-16 11:06 | 59.83398 | 8.63715 | 30189 ft | 466 kts | 245° |
| 2026-04-16 11:07 | 59.81846 | 8.58073 | 30613 ft | 465 kts | 245° |
| 2026-04-16 11:07 | 59.80818 | 8.54345 | 30900 ft | 464 kts | 246° |
| 2026-04-16 11:07 | 59.79269 | 8.48751 | 31364 ft | 461 kts | 246° |
| 2026-04-16 11:07 | 59.77725 | 8.43192 | 31872 ft | 458 kts | 246° |
| 2026-04-16 11:08 | 59.76187 | 8.37680 | 32153 ft | 455 kts | 246° |
| 2026-04-16 11:08 | 59.73143 | 8.26796 | 32215 ft | 448 kts | 246° |
| 2026-04-16 11:09 | 59.70171 | 8.15987 | 32216 ft | 446 kts | 247° |
| 2026-04-16 11:09 | 59.67226 | 8.05187 | 32205 ft | 445 kts | 247° |
| 2026-04-16 11:10 | 59.64263 | 7.94432 | 32208 ft | 445 kts | 247° |
| 2026-04-16 11:10 | 59.61279 | 7.83714 | 32202 ft | 445 kts | 247° |
| 2026-04-16 11:11 | 59.58283 | 7.73034 | 32193 ft | 445 kts | 246° |
| 2026-04-16 11:11 | 59.56789 | 7.67733 | 32019 ft | 437 kts | 246° |
| 2026-04-16 11:11 | 59.55329 | 7.62567 | 31884 ft | 426 kts | 246° |
| 2026-04-16 11:11 | 59.53907 | 7.57538 | 31754 ft | 414 kts | 247° |
| 2026-04-16 11:12 | 59.52525 | 7.52645 | 31552 ft | 405 kts | 247° |
| 2026-04-16 11:12 | 59.51180 | 7.47727 | 30435 ft | 416 kts | 248° |
| 2026-04-16 11:12 | 59.49827 | 7.42529 | 28810 ft | 436 kts | 249° |
| 2026-04-16 11:12 | 59.48440 | 7.37073 | 26960 ft | 456 kts | 248° |
| 2026-04-16 11:13 | 59.46993 | 7.31373 | 25107 ft | 474 kts | 247° |
| 2026-04-16 11:13 | 59.45494 | 7.25547 | 23913 ft | 477 kts | 246° |
| 2026-04-16 11:13 | 59.43985 | 7.19780 | 22841 ft | 472 kts | 245° |
| 2026-04-16 11:13 | 59.42480 | 7.14088 | 21799 ft | 466 kts | 245° |
| 2026-04-16 11:14 | 59.40993 | 7.08486 | 20786 ft | 460 kts | 245° |
| 2026-04-16 11:14 | 59.39521 | 7.02955 | 19829 ft | 454 kts | 245° |
| 2026-04-16 11:14 | 59.38067 | 6.97499 | 18916 ft | 448 kts | 245° |
| 2026-04-16 11:14 | 59.36630 | 6.92105 | 17951 ft | 443 kts | 245° |
| 2026-04-16 11:15 | 59.35216 | 6.86800 | 16989 ft | 436 kts | 244° |
| 2026-04-16 11:15 | 59.33820 | 6.81571 | 16073 ft | 428 kts | 243° |
| 2026-04-16 11:15 | 59.32451 | 6.76452 | 15172 ft | 421 kts | 243° |
| 2026-04-16 11:15 | 59.31102 | 6.71424 | 14320 ft | 414 kts | 242° |
| 2026-04-16 11:16 | 59.29769 | 6.66476 | 13436 ft | 407 kts | 241° |
| 2026-04-16 11:16 | 59.28458 | 6.61607 | 12569 ft | 402 kts | 241° |
| 2026-04-16 11:16 | 59.27182 | 6.56860 | 12251 ft | 384 kts | 241° |
| 2026-04-16 11:16 | 59.25978 | 6.52378 | 12121 ft | 361 kts | 240° |
| 2026-04-16 11:17 | 59.24856 | 6.48204 | 11970 ft | 333 kts | 240° |
| 2026-04-16 11:17 | 59.23820 | 6.44356 | 11838 ft | 308 kts | 240° |
| 2026-04-16 11:17 | 59.22848 | 6.40770 | 11527 ft | 293 kts | 240° |
| 2026-04-16 11:17 | 59.21900 | 6.37299 | 11024 ft | 288 kts | 239° |
| 2026-04-16 11:18 | 59.20960 | 6.33879 | 10484 ft | 284 kts | 239° |
| 2026-04-16 11:18 | 59.20036 | 6.30515 | 10071 ft | 277 kts | 239° |
| 2026-04-16 11:18 | 59.19127 | 6.27204 | 9912 ft | 276 kts | 239° |
| 2026-04-16 11:18 | 59.18221 | 6.23912 | 9753 ft | 275 kts | 239° |
| 2026-04-16 11:19 | 59.17312 | 6.20610 | 9322 ft | 277 kts | 239° |
| 2026-04-16 11:19 | 59.16405 | 6.17307 | 8940 ft | 276 kts | 239° |
| 2026-04-16 11:19 | 59.15500 | 6.14010 | 8594 ft | 274 kts | 239° |
| 2026-04-16 11:19 | 59.14604 | 6.10750 | 8239 ft | 272 kts | 239° |
| 2026-04-16 11:20 | 59.13715 | 6.07522 | 7749 ft | 271 kts | 238° |
| 2026-04-16 11:20 | 59.12822 | 6.04290 | 7278 ft | 270 kts | 238° |
| 2026-04-16 11:20 | 59.11931 | 6.01080 | 6811 ft | 269 kts | 238° |
| 2026-04-16 11:20 | 59.11040 | 5.97876 | 6352 ft | 268 kts | 238° |
| 2026-04-16 11:21 | 59.10152 | 5.94689 | 5865 ft | 267 kts | 237° |
| 2026-04-16 11:21 | 59.09268 | 5.91516 | 5364 ft | 266 kts | 237° |
| 2026-04-16 11:21 | 59.08388 | 5.88355 | 4835 ft | 265 kts | 237° |
| 2026-04-16 11:21 | 59.07518 | 5.85226 | 4375 ft | 263 kts | 237° |
| 2026-04-16 11:22 | 59.06665 | 5.82149 | 4222 ft | 253 kts | 237° |
| 2026-04-16 11:22 | 59.05848 | 5.79207 | 4092 ft | 242 kts | 236° |
| 2026-04-16 11:22 | 59.05065 | 5.76383 | 3935 ft | 234 kts | 237° |
| 2026-04-16 11:22 | 59.04455 | 5.73438 | 3548 ft | 237 kts | 244° |
| 2026-04-16 11:23 | 59.03874 | 5.70466 | 3180 ft | 230 kts | 243° |
| 2026-04-16 11:23 | 59.03252 | 5.67639 | 2735 ft | 229 kts | 232° |
| 2026-04-16 11:23 | 59.02236 | 5.65377 | 2452 ft | 213 kts | 212° |
| 2026-04-16 11:23 | 59.01020 | 5.64013 | 2239 ft | 193 kts | 195° |
| 2026-04-16 11:24 | 58.99793 | 5.63461 | 2026 ft | 171 kts | 180° |
| 2026-04-16 11:24 | 58.98654 | 5.63453 | 1787 ft | 157 kts | 173° |
| 2026-04-16 11:24 | 58.97596 | 5.63482 | 1586 ft | 147 kts | 173° |
| 2026-04-16 11:24 | 58.96603 | 5.63511 | 1390 ft | 139 kts | 173° |
| 2026-04-16 11:25 | 58.95671 | 5.63538 | 1207 ft | 130 kts | 173° |
| 2026-04-16 11:25 | 58.94791 | 5.63565 | 1035 ft | 124 kts | 172° |
| 2026-04-16 11:25 | 58.93940 | 5.63593 | 883 ft | 121 kts | 172° |
| 2026-04-16 11:25 | 58.93101 | 5.63618 | 751 ft | 120 kts | 173° |
| 2026-04-16 11:26 | 58.92272 | 5.63644 | 611 ft | 118 kts | 173° |
| 2026-04-16 11:26 | 58.91447 | 5.63670 | 452 ft | 118 kts | 173° |
| 2026-04-16 11:26 | 58.90629 | 5.63695 | 313 ft | 118 kts | 173° |
| 2026-04-16 11:26 | 58.89818 | 5.63715 | 161 ft | 118 kts | 172° |
| 2026-04-16 11:27 | 58.88989 | 5.63741 | 39 ft | 115 kts | 171° |
| 2026-04-16 11:27 | 58.88300 | 5.63766 | 31 ft | 82 kts | 179° |
| 2026-04-16 11:27 | 58.87901 | 5.63777 | 33 ft | 33 kts | 179° |
| 2026-04-16 11:27 | 58.87727 | 5.63784 | 33 ft | 10 kts | 178° |
| 2026-04-16 11:28 | 58.87697 | 5.63673 | 33 ft | 13 kts | 282° |
| 2026-04-16 11:28 | 58.87726 | 5.63474 | 32 ft | 17 kts | 286° |
| 2026-04-16 11:28 | 58.87778 | 5.63287 | 31 ft | 17 kts | 343° |
| 2026-04-16 11:28 | 58.87894 | 5.63330 | 31 ft | 16 kts | 22° |
| 2026-04-16 11:29 | 58.87992 | 5.63324 | 30 ft | 17 kts | 317° |
| 2026-04-16 11:29 | 58.88075 | 5.63201 | 28 ft | 16 kts | 15° |
| 2026-04-16 11:29 | 58.88181 | 5.63300 | 30 ft | 18 kts | 9° |
| 2026-04-16 11:29 | 58.88301 | 5.63265 | 30 ft | 13 kts | 344° |
| 2026-04-16 11:30 | 58.88333 | 5.63185 | 27 ft | 11 kts | 252° |
| 2026-04-16 11:30 | 58.88318 | 5.63089 | 25 ft | 3 kts | 255° |
| 2026-04-16 11:30 | 58.88315 | 5.63066 | 29 ft | 1 kts | 254° |
| 2026-04-16 11:30 | 58.88315 | 5.63063 | 29 ft | 0 kts | 254° |